sensor_id;sensor_type;location;lat;lon;timestamp;temperature;humidity
5086;DHT22;4715;51.660;7.082;2024-01-11T00:00:10;-3.30;99.90
5086;DHT22;4715;51.660;7.082;2024-01-11T00:02:32;-3.30;99.90
5086;DHT22;4715;51.660;7.082;2024-01-11T00:04:54;-3.30;99.90
5086;DHT22;4715;51.660;7.082;2024-01-11T00:07:19;-3.30;99.90
5086;DHT22;4715;51.660;7.082;2024-01-11T00:09:41;-3.30;99.90
5086;DHT22;4715;51.660;7.082;2024-01-11T00:12:04;-3.30;99.90
5086;DHT22;4715;51.660;7.082;2024-01-11T00:14:26;-3.30;99.90
5086;DHT22;4715;51.660;7.082;2024-01-11T00:16:47;-3.30;99.90
5086;DHT22;4715;51.660;7.082;2024-01-11T00:19:11;-3.30;99.90
5086;DHT22;4715;51.660;7.082;2024-01-11T00:21:33;-3.30;99.90
5086;DHT22;4715;51.660;7.082;2024-01-11T00:23:56;-3.30;99.90
5086;DHT22;4715;51.660;7.082;2024-01-11T00:26:19;-3.40;99.90
5086;DHT22;4715;51.660;7.082;2024-01-11T00:28:41;-3.40;99.90
5086;DHT22;4715;51.660;7.082;2024-01-11T00:31:03;-3.40;99.90
5086;DHT22;4715;51.660;7.082;2024-01-11T00:33:25;-3.40;99.90
5086;DHT22;4715;51.660;7.082;2024-01-11T00:35:46;-3.30;99.90
5086;DHT22;4715;51.660;7.082;2024-01-11T00:38:08;-3.30;99.90
5086;DHT22;4715;51.660;7.082;2024-01-11T00:40:31;-3.40;99.90
5086;DHT22;4715;51.660;7.082;2024-01-11T00:42:53;-3.40;99.90
5086;DHT22;4715;51.660;7.082;2024-01-11T00:45:15;-3.50;99.90
5086;DHT22;4715;51.660;7.082;2024-01-11T00:47:37;-3.50;99.90
5086;DHT22;4715;51.660;7.082;2024-01-11T00:49:59;-3.50;99.90
5086;DHT22;4715;51.660;7.082;2024-01-11T00:52:21;-3.60;99.90
5086;DHT22;4715;51.660;7.082;2024-01-11T00:54:43;-3.60;99.90
5086;DHT22;4715;51.660;7.082;2024-01-11T00:57:07;-3.60;99.90
5086;DHT22;4715;51.660;7.082;2024-01-11T00:59:28;-3.60;99.90
5086;DHT22;4715;51.660;7.082;2024-01-11T01:01:50;-3.70;99.90
5086;DHT22;4715;51.660;7.082;2024-01-11T01:04:13;-3.70;99.90
5086;DHT22;4715;51.660;7.082;2024-01-11T01:06:35;-3.70;99.90
5086;DHT22;4715;51.660;7.082;2024-01-11T01:08:56;-3.70;99.90
5086;DHT22;4715;51.660;7.082;2024-01-11T01:11:18;-3.70;99.90
5086;DHT22;4715;51.660;7.082;2024-01-11T01:13:41;-3.70;99.90
5086;DHT22;4715;51.660;7.082;2024-01-11T01:16:05;-3.80;99.90
5086;DHT22;4715;51.660;7.082;2024-01-11T01:18:27;-3.80;99.90
5086;DHT22;4715;51.660;7.082;2024-01-11T01:20:48;-3.80;99.90
5086;DHT22;4715;51.660;7.082;2024-01-11T01:23:10;-3.80;99.90
5086;DHT22;4715;51.660;7.082;2024-01-11T01:25:32;-3.90;99.90
5086;DHT22;4715;51.660;7.082;2024-01-11T01:27:54;-3.90;99.90
5086;DHT22;4715;51.660;7.082;2024-01-11T01:30:20;-3.90;99.90
5086;DHT22;4715;51.660;7.082;2024-01-11T01:32:42;-3.90;99.90
5086;DHT22;4715;51.660;7.082;2024-01-11T01:35:07;-3.90;99.90
5086;DHT22;4715;51.660;7.082;2024-01-11T01:37:29;-4.00;99.90
5086;DHT22;4715;51.660;7.082;2024-01-11T01:39:51;-4.00;99.90
5086;DHT22;4715;51.660;7.082;2024-01-11T01:42:13;-3.90;99.90
5086;DHT22;4715;51.660;7.082;2024-01-11T01:44:35;-3.90;99.90
5086;DHT22;4715;51.660;7.082;2024-01-11T01:46:58;-3.90;99.90
5086;DHT22;4715;51.660;7.082;2024-01-11T01:49:20;-3.90;99.90
5086;DHT22;4715;51.660;7.082;2024-01-11T01:51:43;-4.00;99.90
5086;DHT22;4715;51.660;7.082;2024-01-11T01:54:04;-4.00;99.90
5086;DHT22;4715;51.660;7.082;2024-01-11T01:56:28;-4.10;99.90
5086;DHT22;4715;51.660;7.082;2024-01-11T01:58:51;-4.20;99.90
5086;DHT22;4715;51.660;7.082;2024-01-11T02:01:14;-4.20;99.90
5086;DHT22;4715;51.660;7.082;2024-01-11T02:03:41;-4.30;99.90
5086;DHT22;4715;51.660;7.082;2024-01-11T02:06:05;-4.30;99.90
5086;DHT22;4715;51.660;7.082;2024-01-11T02:08:27;-4.30;99.90
5086;DHT22;4715;51.660;7.082;2024-01-11T02:10:49;-4.40;99.90
5086;DHT22;4715;51.660;7.082;2024-01-11T02:13:11;-4.40;99.90
5086;DHT22;4715;51.660;7.082;2024-01-11T02:15:33;-4.40;99.90
5086;DHT22;4715;51.660;7.082;2024-01-11T02:17:55;-4.40;99.90
5086;DHT22;4715;51.660;7.082;2024-01-11T02:20:18;-4.30;99.90
5086;DHT22;4715;51.660;7.082;2024-01-11T02:22:41;-4.30;99.90
5086;DHT22;4715;51.660;7.082;2024-01-11T02:25:07;-4.30;99.90
5086;DHT22;4715;51.660;7.082;2024-01-11T02:27:29;-4.20;99.90
5086;DHT22;4715;51.660;7.082;2024-01-11T02:29:53;-4.20;99.90
5086;DHT22;4715;51.660;7.082;2024-01-11T02:32:15;-4.20;99.90
5086;DHT22;4715;51.660;7.082;2024-01-11T02:34:37;-4.20;99.90
5086;DHT22;4715;51.660;7.082;2024-01-11T02:36:59;-4.20;99.90
5086;DHT22;4715;51.660;7.082;2024-01-11T02:39:23;-4.30;99.90
5086;DHT22;4715;51.660;7.082;2024-01-11T02:41:47;-4.40;99.90
5086;DHT22;4715;51.660;7.082;2024-01-11T02:44:11;-4.40;99.90
5086;DHT22;4715;51.660;7.082;2024-01-11T02:46:33;-4.50;99.90
5086;DHT22;4715;51.660;7.082;2024-01-11T02:48:55;-4.50;99.90
5086;DHT22;4715;51.660;7.082;2024-01-11T02:51:17;-4.40;99.90
5086;DHT22;4715;51.660;7.082;2024-01-11T02:53:38;-4.40;99.90
5086;DHT22;4715;51.660;7.082;2024-01-11T02:56:00;-4.40;99.90
5086;DHT22;4715;51.660;7.082;2024-01-11T02:58:23;-4.50;99.90
5086;DHT22;4715;51.660;7.082;2024-01-11T03:00:45;-4.50;99.90
5086;DHT22;4715;51.660;7.082;2024-01-11T03:03:07;-4.50;99.90
5086;DHT22;4715;51.660;7.082;2024-01-11T03:05:29;-4.50;99.90
5086;DHT22;4715;51.660;7.082;2024-01-11T03:07:51;-4.50;99.90
5086;DHT22;4715;51.660;7.082;2024-01-11T03:10:13;-4.50;99.90
5086;DHT22;4715;51.660;7.082;2024-01-11T03:12:35;-4.50;99.90
5086;DHT22;4715;51.660;7.082;2024-01-11T03:14:58;-4.50;99.90
5086;DHT22;4715;51.660;7.082;2024-01-11T03:17:20;-4.50;99.90
5086;DHT22;4715;51.660;7.082;2024-01-11T03:19:42;-4.50;99.90
5086;DHT22;4715;51.660;7.082;2024-01-11T03:22:04;-4.50;99.90
5086;DHT22;4715;51.660;7.082;2024-01-11T03:24:27;-4.50;99.90
5086;DHT22;4715;51.660;7.082;2024-01-11T03:26:49;-4.60;99.90
5086;DHT22;4715;51.660;7.082;2024-01-11T03:29:11;-4.60;99.90
5086;DHT22;4715;51.660;7.082;2024-01-11T03:31:34;-4.60;99.90
5086;DHT22;4715;51.660;7.082;2024-01-11T03:33:58;-4.70;99.90
5086;DHT22;4715;51.660;7.082;2024-01-11T03:36:23;-4.70;99.90
5086;DHT22;4715;51.660;7.082;2024-01-11T03:38:45;-4.70;99.90
5086;DHT22;4715;51.660;7.082;2024-01-11T03:41:08;-4.70;99.90
5086;DHT22;4715;51.660;7.082;2024-01-11T03:43:30;-4.70;99.90
5086;DHT22;4715;51.660;7.082;2024-01-11T03:45:52;-4.60;99.90
5086;DHT22;4715;51.660;7.082;2024-01-11T03:48:15;-4.60;99.90
5086;DHT22;4715;51.660;7.082;2024-01-11T03:50:37;-4.60;99.90
5086;DHT22;4715;51.660;7.082;2024-01-11T03:52:58;-4.60;99.90
5086;DHT22;4715;51.660;7.082;2024-01-11T03:55:20;-4.60;99.90
5086;DHT22;4715;51.660;7.082;2024-01-11T03:57:43;-4.70;99.90
5086;DHT22;4715;51.660;7.082;2024-01-11T04:00:06;-4.70;99.90
5086;DHT22;4715;51.660;7.082;2024-01-11T04:02:29;-4.70;99.90
5086;DHT22;4715;51.660;7.082;2024-01-11T04:04:53;-4.70;99.90
5086;DHT22;4715;51.660;7.082;2024-01-11T04:07:17;-4.70;99.90
5086;DHT22;4715;51.660;7.082;2024-01-11T04:09:39;-4.70;99.90
5086;DHT22;4715;51.660;7.082;2024-01-11T04:12:01;-4.60;99.90
5086;DHT22;4715;51.660;7.082;2024-01-11T04:14:25;-4.60;99.90
5086;DHT22;4715;51.660;7.082;2024-01-11T04:16:47;-4.60;99.90
5086;DHT22;4715;51.660;7.082;2024-01-11T04:19:09;-4.60;99.90
5086;DHT22;4715;51.660;7.082;2024-01-11T04:21:32;-4.60;99.90
5086;DHT22;4715;51.660;7.082;2024-01-11T04:23:54;-4.60;99.90
5086;DHT22;4715;51.660;7.082;2024-01-11T04:26:16;-4.50;99.90
5086;DHT22;4715;51.660;7.082;2024-01-11T04:28:38;-4.50;99.90
5086;DHT22;4715;51.660;7.082;2024-01-11T04:31:00;-4.50;99.90
5086;DHT22;4715;51.660;7.082;2024-01-11T04:33:22;-4.50;99.90
5086;DHT22;4715;51.660;7.082;2024-01-11T04:35:43;-4.50;99.90
5086;DHT22;4715;51.660;7.082;2024-01-11T04:38:07;-4.50;99.90
5086;DHT22;4715;51.660;7.082;2024-01-11T04:40:29;-4.50;99.90
5086;DHT22;4715;51.660;7.082;2024-01-11T04:42:51;-4.60;99.90
5086;DHT22;4715;51.660;7.082;2024-01-11T04:45:13;-4.60;99.90
5086;DHT22;4715;51.660;7.082;2024-01-11T04:47:35;-4.60;99.90
5086;DHT22;4715;51.660;7.082;2024-01-11T04:49:58;-4.70;99.90
5086;DHT22;4715;51.660;7.082;2024-01-11T04:52:20;-4.70;99.90
5086;DHT22;4715;51.660;7.082;2024-01-11T04:54:43;-4.70;99.90
5086;DHT22;4715;51.660;7.082;2024-01-11T04:57:07;-4.70;99.90
5086;DHT22;4715;51.660;7.082;2024-01-11T04:59:28;-4.70;99.90
5086;DHT22;4715;51.660;7.082;2024-01-11T05:01:50;-4.60;99.90
5086;DHT22;4715;51.660;7.082;2024-01-11T05:04:13;-4.60;99.90
5086;DHT22;4715;51.660;7.082;2024-01-11T05:06:35;-4.60;99.90
5086;DHT22;4715;51.660;7.082;2024-01-11T05:08:57;-4.60;99.90
5086;DHT22;4715;51.660;7.082;2024-01-11T05:11:21;-4.60;99.90
5086;DHT22;4715;51.660;7.082;2024-01-11T05:13:44;-4.60;99.90
5086;DHT22;4715;51.660;7.082;2024-01-11T05:16:19;-4.60;99.90
5086;DHT22;4715;51.660;7.082;2024-01-11T05:18:41;-4.60;99.90
5086;DHT22;4715;51.660;7.082;2024-01-11T05:21:03;-4.60;99.90
5086;DHT22;4715;51.660;7.082;2024-01-11T05:23:25;-4.60;99.90
5086;DHT22;4715;51.660;7.082;2024-01-11T05:25:47;-4.60;99.90
5086;DHT22;4715;51.660;7.082;2024-01-11T05:28:17;-4.60;99.90
5086;DHT22;4715;51.660;7.082;2024-01-11T05:30:39;-4.60;99.90
5086;DHT22;4715;51.660;7.082;2024-01-11T05:33:01;-4.60;99.90
5086;DHT22;4715;51.660;7.082;2024-01-11T05:35:23;-4.60;99.90
5086;DHT22;4715;51.660;7.082;2024-01-11T05:37:47;-4.60;99.90
5086;DHT22;4715;51.660;7.082;2024-01-11T05:40:09;-4.60;99.90
5086;DHT22;4715;51.660;7.082;2024-01-11T05:42:31;-4.60;99.90
5086;DHT22;4715;51.660;7.082;2024-01-11T05:44:55;-4.60;99.90
5086;DHT22;4715;51.660;7.082;2024-01-11T05:47:19;-4.60;99.90
5086;DHT22;4715;51.660;7.082;2024-01-11T05:49:41;-4.60;99.90
5086;DHT22;4715;51.660;7.082;2024-01-11T05:52:04;-4.60;99.90
5086;DHT22;4715;51.660;7.082;2024-01-11T05:54:26;-4.60;99.90
5086;DHT22;4715;51.660;7.082;2024-01-11T05:56:48;-4.60;99.90
5086;DHT22;4715;51.660;7.082;2024-01-11T05:59:10;-4.60;99.90
5086;DHT22;4715;51.660;7.082;2024-01-11T06:01:33;-4.50;99.90
5086;DHT22;4715;51.660;7.082;2024-01-11T06:03:55;-4.50;99.90
5086;DHT22;4715;51.660;7.082;2024-01-11T06:06:17;-4.50;99.90
5086;DHT22;4715;51.660;7.082;2024-01-11T06:08:41;-4.50;99.90
5086;DHT22;4715;51.660;7.082;2024-01-11T06:11:04;-4.50;99.90
5086;DHT22;4715;51.660;7.082;2024-01-11T06:13:26;-4.50;99.90
5086;DHT22;4715;51.660;7.082;2024-01-11T06:15:48;-4.50;99.90
5086;DHT22;4715;51.660;7.082;2024-01-11T06:18:11;-4.50;99.90
5086;DHT22;4715;51.660;7.082;2024-01-11T06:20:33;-4.50;99.90
5086;DHT22;4715;51.660;7.082;2024-01-11T06:22:55;-4.50;99.90
5086;DHT22;4715;51.660;7.082;2024-01-11T06:25:17;-4.50;99.90
5086;DHT22;4715;51.660;7.082;2024-01-11T06:27:43;-4.50;99.90
5086;DHT22;4715;51.660;7.082;2024-01-11T06:30:06;-4.60;99.90
5086;DHT22;4715;51.660;7.082;2024-01-11T06:32:28;-4.60;99.90
5086;DHT22;4715;51.660;7.082;2024-01-11T06:34:51;-4.60;99.90
5086;DHT22;4715;51.660;7.082;2024-01-11T06:37:13;-4.70;99.90
5086;DHT22;4715;51.660;7.082;2024-01-11T06:39:35;-4.70;99.90
5086;DHT22;4715;51.660;7.082;2024-01-11T06:41:58;-4.70;99.90
5086;DHT22;4715;51.660;7.082;2024-01-11T06:44:20;-4.70;99.90
5086;DHT22;4715;51.660;7.082;2024-01-11T06:46:42;-4.80;99.90
5086;DHT22;4715;51.660;7.082;2024-01-11T06:49:04;-4.80;99.90
5086;DHT22;4715;51.660;7.082;2024-01-11T06:51:28;-4.80;99.90
5086;DHT22;4715;51.660;7.082;2024-01-11T06:53:50;-4.80;99.90
5086;DHT22;4715;51.660;7.082;2024-01-11T06:56:16;-4.80;99.90
5086;DHT22;4715;51.660;7.082;2024-01-11T06:58:38;-4.80;99.90
5086;DHT22;4715;51.660;7.082;2024-01-11T07:01:00;-4.80;99.90
5086;DHT22;4715;51.660;7.082;2024-01-11T07:03:22;-4.80;99.90
5086;DHT22;4715;51.660;7.082;2024-01-11T07:05:45;-4.80;99.90
5086;DHT22;4715;51.660;7.082;2024-01-11T07:08:09;-4.80;99.90
5086;DHT22;4715;51.660;7.082;2024-01-11T07:10:30;-4.80;99.90
5086;DHT22;4715;51.660;7.082;2024-01-11T07:12:53;-4.80;99.90
5086;DHT22;4715;51.660;7.082;2024-01-11T07:15:15;-4.80;99.90
5086;DHT22;4715;51.660;7.082;2024-01-11T07:17:38;-4.80;99.90
5086;DHT22;4715;51.660;7.082;2024-01-11T07:20:00;-4.80;99.90
5086;DHT22;4715;51.660;7.082;2024-01-11T07:22:23;-4.80;99.90
5086;DHT22;4715;51.660;7.082;2024-01-11T07:24:46;-4.80;99.90
5086;DHT22;4715;51.660;7.082;2024-01-11T07:27:08;-4.80;99.90
5086;DHT22;4715;51.660;7.082;2024-01-11T07:29:30;-4.80;99.90
5086;DHT22;4715;51.660;7.082;2024-01-11T07:31:54;-4.80;99.90
5086;DHT22;4715;51.660;7.082;2024-01-11T07:34:16;-4.80;99.90
5086;DHT22;4715;51.660;7.082;2024-01-11T07:36:39;-4.80;99.90
5086;DHT22;4715;51.660;7.082;2024-01-11T07:39:02;-4.80;99.90
5086;DHT22;4715;51.660;7.082;2024-01-11T07:41:27;-4.70;99.90
5086;DHT22;4715;51.660;7.082;2024-01-11T07:43:49;-4.70;99.90
5086;DHT22;4715;51.660;7.082;2024-01-11T07:46:11;-4.70;99.90
5086;DHT22;4715;51.660;7.082;2024-01-11T07:48:33;-4.70;99.90
5086;DHT22;4715;51.660;7.082;2024-01-11T07:50:55;-4.70;99.90
5086;DHT22;4715;51.660;7.082;2024-01-11T07:53:25;-4.70;99.90
5086;DHT22;4715;51.660;7.082;2024-01-11T07:55:49;-4.60;99.90
5086;DHT22;4715;51.660;7.082;2024-01-11T07:58:15;-4.60;99.90
5086;DHT22;4715;51.660;7.082;2024-01-11T08:00:39;-4.60;99.90
5086;DHT22;4715;51.660;7.082;2024-01-11T08:03:01;-4.60;99.90
5086;DHT22;4715;51.660;7.082;2024-01-11T08:05:23;-4.50;99.90
5086;DHT22;4715;51.660;7.082;2024-01-11T08:07:45;-4.50;99.90
5086;DHT22;4715;51.660;7.082;2024-01-11T08:10:08;-4.50;99.90
5086;DHT22;4715;51.660;7.082;2024-01-11T08:12:32;-4.40;99.90
5086;DHT22;4715;51.660;7.082;2024-01-11T08:14:55;-4.40;99.90
5086;DHT22;4715;51.660;7.082;2024-01-11T08:17:19;-4.40;99.90
5086;DHT22;4715;51.660;7.082;2024-01-11T08:19:41;-4.40;99.90
5086;DHT22;4715;51.660;7.082;2024-01-11T08:22:04;-4.40;99.90
5086;DHT22;4715;51.660;7.082;2024-01-11T08:24:26;-4.30;99.90
5086;DHT22;4715;51.660;7.082;2024-01-11T08:26:47;-4.30;99.90
5086;DHT22;4715;51.660;7.082;2024-01-11T08:29:10;-4.20;99.90
5086;DHT22;4715;51.660;7.082;2024-01-11T08:31:33;-4.20;99.90
5086;DHT22;4715;51.660;7.082;2024-01-11T08:33:58;-4.10;99.90
5086;DHT22;4715;51.660;7.082;2024-01-11T08:36:20;-4.00;99.90
5086;DHT22;4715;51.660;7.082;2024-01-11T08:38:42;-4.00;99.90
5086;DHT22;4715;51.660;7.082;2024-01-11T08:41:04;-3.90;99.90
5086;DHT22;4715;51.660;7.082;2024-01-11T08:43:28;-3.90;99.90
5086;DHT22;4715;51.660;7.082;2024-01-11T08:45:51;-3.90;99.90
5086;DHT22;4715;51.660;7.082;2024-01-11T08:48:15;-3.80;99.90
5086;DHT22;4715;51.660;7.082;2024-01-11T08:50:41;-3.80;99.90
5086;DHT22;4715;51.660;7.082;2024-01-11T08:53:03;-3.80;99.90
5086;DHT22;4715;51.660;7.082;2024-01-11T08:55:29;-3.80;99.90
5086;DHT22;4715;51.660;7.082;2024-01-11T08:57:53;-3.80;99.90
5086;DHT22;4715;51.660;7.082;2024-01-11T09:00:16;-3.80;99.90
5086;DHT22;4715;51.660;7.082;2024-01-11T09:02:39;-3.80;99.90
5086;DHT22;4715;51.660;7.082;2024-01-11T09:05:02;-3.80;99.90
5086;DHT22;4715;51.660;7.082;2024-01-11T09:07:28;-3.80;99.90
5086;DHT22;4715;51.660;7.082;2024-01-11T09:09:58;-3.80;99.90
5086;DHT22;4715;51.660;7.082;2024-01-11T09:12:22;-3.70;99.90
5086;DHT22;4715;51.660;7.082;2024-01-11T09:14:44;-3.60;99.90
5086;DHT22;4715;51.660;7.082;2024-01-11T09:17:06;-3.60;99.90
5086;DHT22;4715;51.660;7.082;2024-01-11T09:19:30;-3.50;99.90
5086;DHT22;4715;51.660;7.082;2024-01-11T09:21:56;-3.50;99.90
5086;DHT22;4715;51.660;7.082;2024-01-11T09:24:18;-3.50;99.90
5086;DHT22;4715;51.660;7.082;2024-01-11T09:26:39;-3.40;99.90
5086;DHT22;4715;51.660;7.082;2024-01-11T09:29:01;-3.40;99.90
5086;DHT22;4715;51.660;7.082;2024-01-11T09:31:23;-3.30;99.90
5086;DHT22;4715;51.660;7.082;2024-01-11T09:33:48;-3.30;99.90
5086;DHT22;4715;51.660;7.082;2024-01-11T09:36:11;-3.20;99.90
5086;DHT22;4715;51.660;7.082;2024-01-11T09:38:34;-3.20;99.90
5086;DHT22;4715;51.660;7.082;2024-01-11T09:41:05;-3.10;99.90
5086;DHT22;4715;51.660;7.082;2024-01-11T09:43:28;-3.10;99.90
5086;DHT22;4715;51.660;7.082;2024-01-11T09:45:51;-3.10;99.90
5086;DHT22;4715;51.660;7.082;2024-01-11T09:48:20;-3.00;99.90
5086;DHT22;4715;51.660;7.082;2024-01-11T09:50:43;-3.00;99.90
5086;DHT22;4715;51.660;7.082;2024-01-11T09:53:08;-3.00;99.90
5086;DHT22;4715;51.660;7.082;2024-01-11T09:55:32;-2.90;99.90
5086;DHT22;4715;51.660;7.082;2024-01-11T09:57:56;-2.80;99.90
5086;DHT22;4715;51.660;7.082;2024-01-11T10:00:22;-2.80;99.90
5086;DHT22;4715;51.660;7.082;2024-01-11T10:02:46;-2.70;99.90
5086;DHT22;4715;51.660;7.082;2024-01-11T10:05:08;-2.70;99.90
5086;DHT22;4715;51.660;7.082;2024-01-11T10:07:32;-2.60;99.90
5086;DHT22;4715;51.660;7.082;2024-01-11T10:09:55;-2.60;99.90
5086;DHT22;4715;51.660;7.082;2024-01-11T10:12:20;-2.50;99.90
5086;DHT22;4715;51.660;7.082;2024-01-11T10:14:45;-2.30;99.90
5086;DHT22;4715;51.660;7.082;2024-01-11T10:17:07;-2.20;99.90
5086;DHT22;4715;51.660;7.082;2024-01-11T10:19:29;-2.10;99.90
5086;DHT22;4715;51.660;7.082;2024-01-11T10:21:51;-1.90;99.90
5086;DHT22;4715;51.660;7.082;2024-01-11T10:24:18;-1.70;99.90
5086;DHT22;4715;51.660;7.082;2024-01-11T10:26:43;-1.50;99.90
5086;DHT22;4715;51.660;7.082;2024-01-11T10:29:06;-1.30;99.90
5086;DHT22;4715;51.660;7.082;2024-01-11T10:31:31;-1.00;99.90
5086;DHT22;4715;51.660;7.082;2024-01-11T10:33:57;-0.80;99.90
5086;DHT22;4715;51.660;7.082;2024-01-11T10:36:19;-0.60;99.90
5086;DHT22;4715;51.660;7.082;2024-01-11T10:38:41;-0.50;99.90
5086;DHT22;4715;51.660;7.082;2024-01-11T10:41:05;-0.40;99.90
5086;DHT22;4715;51.660;7.082;2024-01-11T10:43:28;-0.30;99.90
5086;DHT22;4715;51.660;7.082;2024-01-11T10:45:58;-0.20;99.90
5086;DHT22;4715;51.660;7.082;2024-01-11T10:48:25;-0.10;99.90
5086;DHT22;4715;51.660;7.082;2024-01-11T10:50:52;-0.10;99.90
5086;DHT22;4715;51.660;7.082;2024-01-11T10:53:25;-0.10;99.90
5086;DHT22;4715;51.660;7.082;2024-01-11T10:55:49;0.00;99.90
5086;DHT22;4715;51.660;7.082;2024-01-11T10:58:12;0.00;99.90
5086;DHT22;4715;51.660;7.082;2024-01-11T11:00:35;0.10;99.90
5086;DHT22;4715;51.660;7.082;2024-01-11T11:02:59;0.20;99.90
5086;DHT22;4715;51.660;7.082;2024-01-11T11:05:21;0.30;99.90
5086;DHT22;4715;51.660;7.082;2024-01-11T11:07:45;0.40;99.90
5086;DHT22;4715;51.660;7.082;2024-01-11T11:10:09;0.40;99.90
5086;DHT22;4715;51.660;7.082;2024-01-11T11:12:32;0.50;99.90
5086;DHT22;4715;51.660;7.082;2024-01-11T11:14:58;0.60;99.90
5086;DHT22;4715;51.660;7.082;2024-01-11T11:17:20;0.60;99.90
5086;DHT22;4715;51.660;7.082;2024-01-11T11:19:46;0.70;99.90
5086;DHT22;4715;51.660;7.082;2024-01-11T11:22:08;0.80;99.90
5086;DHT22;4715;51.660;7.082;2024-01-11T11:24:30;0.80;99.90
5086;DHT22;4715;51.660;7.082;2024-01-11T11:26:55;0.80;99.90
5086;DHT22;4715;51.660;7.082;2024-01-11T11:29:17;0.80;99.90
5086;DHT22;4715;51.660;7.082;2024-01-11T11:31:42;0.80;99.90
5086;DHT22;4715;51.660;7.082;2024-01-11T11:34:07;0.90;99.90
5086;DHT22;4715;51.660;7.082;2024-01-11T11:36:34;0.90;99.90
5086;DHT22;4715;51.660;7.082;2024-01-11T11:38:58;1.00;99.90
5086;DHT22;4715;51.660;7.082;2024-01-11T11:41:22;1.00;99.90
5086;DHT22;4715;51.660;7.082;2024-01-11T11:43:48;1.10;99.90
5086;DHT22;4715;51.660;7.082;2024-01-11T11:46:10;1.20;99.90
5086;DHT22;4715;51.660;7.082;2024-01-11T11:48:50;1.30;99.90
5086;DHT22;4715;51.660;7.082;2024-01-11T11:51:15;1.50;99.90
5086;DHT22;4715;51.660;7.082;2024-01-11T11:53:40;1.60;99.90
5086;DHT22;4715;51.660;7.082;2024-01-11T11:56:05;1.70;99.90
5086;DHT22;4715;51.660;7.082;2024-01-11T11:58:28;1.90;99.90
5086;DHT22;4715;51.660;7.082;2024-01-11T12:00:50;2.00;99.90
5086;DHT22;4715;51.660;7.082;2024-01-11T12:03:13;2.10;99.90
5086;DHT22;4715;51.660;7.082;2024-01-11T12:05:38;2.20;99.90
5086;DHT22;4715;51.660;7.082;2024-01-11T12:08:01;2.40;99.90
5086;DHT22;4715;51.660;7.082;2024-01-11T12:10:24;2.50;99.90
5086;DHT22;4715;51.660;7.082;2024-01-11T12:12:49;2.60;99.90
5086;DHT22;4715;51.660;7.082;2024-01-11T12:15:11;2.70;99.90
5086;DHT22;4715;51.660;7.082;2024-01-11T12:17:34;2.80;99.90
5086;DHT22;4715;51.660;7.082;2024-01-11T12:19:56;2.90;99.90
5086;DHT22;4715;51.660;7.082;2024-01-11T12:22:19;3.00;99.90
5086;DHT22;4715;51.660;7.082;2024-01-11T12:24:42;3.10;99.90
5086;DHT22;4715;51.660;7.082;2024-01-11T12:27:05;3.20;99.90
5086;DHT22;4715;51.660;7.082;2024-01-11T12:29:28;3.30;99.90
5086;DHT22;4715;51.660;7.082;2024-01-11T12:31:52;3.30;99.90
5086;DHT22;4715;51.660;7.082;2024-01-11T12:34:14;3.40;99.90
5086;DHT22;4715;51.660;7.082;2024-01-11T12:36:38;3.40;99.90
5086;DHT22;4715;51.660;7.082;2024-01-11T12:39:00;3.40;99.90
5086;DHT22;4715;51.660;7.082;2024-01-11T12:41:24;3.30;99.90
5086;DHT22;4715;51.660;7.082;2024-01-11T12:43:48;3.30;99.90
5086;DHT22;4715;51.660;7.082;2024-01-11T12:46:10;3.30;99.90
5086;DHT22;4715;51.660;7.082;2024-01-11T12:48:32;3.30;99.90
5086;DHT22;4715;51.660;7.082;2024-01-11T12:50:53;3.40;99.90
5086;DHT22;4715;51.660;7.082;2024-01-11T12:53:16;3.60;99.90
5086;DHT22;4715;51.660;7.082;2024-01-11T12:55:39;3.80;99.90
5086;DHT22;4715;51.660;7.082;2024-01-11T12:58:05;4.10;99.90
5086;DHT22;4715;51.660;7.082;2024-01-11T13:00:29;4.40;99.90
5086;DHT22;4715;51.660;7.082;2024-01-11T13:02:51;4.70;99.90
5086;DHT22;4715;51.660;7.082;2024-01-11T13:05:20;4.80;99.90
5086;DHT22;4715;51.660;7.082;2024-01-11T13:07:48;5.00;99.90
5086;DHT22;4715;51.660;7.082;2024-01-11T13:10:10;5.20;99.90
5086;DHT22;4715;51.660;7.082;2024-01-11T13:12:33;5.20;99.90
5086;DHT22;4715;51.660;7.082;2024-01-11T13:14:55;5.00;99.90
5086;DHT22;4715;51.660;7.082;2024-01-11T13:17:20;4.50;99.90
5086;DHT22;4715;51.660;7.082;2024-01-11T13:19:42;4.10;99.90
5086;DHT22;4715;51.660;7.082;2024-01-11T13:22:04;3.60;99.90
5086;DHT22;4715;51.660;7.082;2024-01-11T13:24:29;3.30;99.90
5086;DHT22;4715;51.660;7.082;2024-01-11T13:26:51;2.90;99.90
5086;DHT22;4715;51.660;7.082;2024-01-11T13:29:13;2.70;99.90
5086;DHT22;4715;51.660;7.082;2024-01-11T13:31:42;2.40;99.90
5086;DHT22;4715;51.660;7.082;2024-01-11T13:34:13;2.30;99.90
5086;DHT22;4715;51.660;7.082;2024-01-11T13:36:35;2.00;99.90
5086;DHT22;4715;51.660;7.082;2024-01-11T13:38:57;1.90;99.90
5086;DHT22;4715;51.660;7.082;2024-01-11T13:41:18;1.80;99.90
5086;DHT22;4715;51.660;7.082;2024-01-11T13:43:40;1.70;99.90
5086;DHT22;4715;51.660;7.082;2024-01-11T13:46:02;1.50;99.90
5086;DHT22;4715;51.660;7.082;2024-01-11T13:48:26;1.50;99.90
5086;DHT22;4715;51.660;7.082;2024-01-11T13:50:51;1.40;99.90
5086;DHT22;4715;51.660;7.082;2024-01-11T13:53:13;1.50;99.90
5086;DHT22;4715;51.660;7.082;2024-01-11T13:55:41;1.50;99.90
5086;DHT22;4715;51.660;7.082;2024-01-11T13:58:04;1.60;99.90
5086;DHT22;4715;51.660;7.082;2024-01-11T14:00:31;1.60;99.90
5086;DHT22;4715;51.660;7.082;2024-01-11T14:02:56;1.60;99.90
5086;DHT22;4715;51.660;7.082;2024-01-11T14:05:18;1.60;99.90
5086;DHT22;4715;51.660;7.082;2024-01-11T14:07:42;1.70;99.90
5086;DHT22;4715;51.660;7.082;2024-01-11T14:10:06;1.60;99.90
5086;DHT22;4715;51.660;7.082;2024-01-11T14:12:29;1.60;99.90
5086;DHT22;4715;51.660;7.082;2024-01-11T14:14:52;1.50;99.90
5086;DHT22;4715;51.660;7.082;2024-01-11T14:17:14;1.40;99.90
5086;DHT22;4715;51.660;7.082;2024-01-11T14:19:37;1.30;99.90
5086;DHT22;4715;51.660;7.082;2024-01-11T14:21:59;1.30;99.90
5086;DHT22;4715;51.660;7.082;2024-01-11T14:24:24;1.20;99.90
5086;DHT22;4715;51.660;7.082;2024-01-11T14:26:47;1.20;99.90
5086;DHT22;4715;51.660;7.082;2024-01-11T14:29:10;1.10;99.90
5086;DHT22;4715;51.660;7.082;2024-01-11T14:31:35;1.00;99.90
5086;DHT22;4715;51.660;7.082;2024-01-11T14:33:58;1.00;99.90
5086;DHT22;4715;51.660;7.082;2024-01-11T14:36:22;0.90;99.90
5086;DHT22;4715;51.660;7.082;2024-01-11T14:38:46;0.90;99.90
5086;DHT22;4715;51.660;7.082;2024-01-11T14:41:10;0.80;99.90
5086;DHT22;4715;51.660;7.082;2024-01-11T14:43:33;0.80;99.90
5086;DHT22;4715;51.660;7.082;2024-01-11T14:45:57;0.80;99.90
5086;DHT22;4715;51.660;7.082;2024-01-11T14:48:19;0.80;99.90
5086;DHT22;4715;51.660;7.082;2024-01-11T14:50:45;0.80;99.90
5086;DHT22;4715;51.660;7.082;2024-01-11T14:53:08;0.80;99.90
5086;DHT22;4715;51.660;7.082;2024-01-11T14:55:30;0.80;99.90
5086;DHT22;4715;51.660;7.082;2024-01-11T14:57:53;0.80;99.90
5086;DHT22;4715;51.660;7.082;2024-01-11T15:00:16;0.80;99.90
5086;DHT22;4715;51.660;7.082;2024-01-11T15:02:39;0.80;99.90
5086;DHT22;4715;51.660;7.082;2024-01-11T15:05:02;0.80;99.90
5086;DHT22;4715;51.660;7.082;2024-01-11T15:07:26;0.80;99.90
5086;DHT22;4715;51.660;7.082;2024-01-11T15:09:50;0.80;99.90
5086;DHT22;4715;51.660;7.082;2024-01-11T15:12:25;0.80;99.90
5086;DHT22;4715;51.660;7.082;2024-01-11T15:14:48;0.70;99.90
5086;DHT22;4715;51.660;7.082;2024-01-11T15:17:11;0.70;99.90
5086;DHT22;4715;51.660;7.082;2024-01-11T15:19:35;0.60;99.90
5086;DHT22;4715;51.660;7.082;2024-01-11T15:22:06;0.70;99.90
5086;DHT22;4715;51.660;7.082;2024-01-11T15:24:29;0.60;99.90
5086;DHT22;4715;51.660;7.082;2024-01-11T15:26:53;0.60;99.90
5086;DHT22;4715;51.660;7.082;2024-01-11T15:29:20;0.70;99.90
5086;DHT22;4715;51.660;7.082;2024-01-11T15:31:45;0.60;99.90
5086;DHT22;4715;51.660;7.082;2024-01-11T15:34:17;0.70;99.90
5086;DHT22;4715;51.660;7.082;2024-01-11T15:36:40;0.70;99.90
5086;DHT22;4715;51.660;7.082;2024-01-11T15:39:16;0.70;99.90